Funchalense 5 — CSKN — position and weather

sailwx.info

Track history (hours):
 
Tides and Currents Weather Stations Pressure Air Temp Water Temp Dewpoint Dewpoint Depression Visibility Wind Speed Wind Dir Waves Ship Positions

Funchalense 5

Last reported at 2016-Aug-27 07:33 UTC. Time now 2016-Aug-27 08:12 UTC.
Position N 38°43' W 009°07'.

Length 127 m; draft 6.5 m.

Type: Ship. MMSI: 255804250.

Date/timePositionNaut miles runAvg speedWind from/ knotsBaromVisibWave heightAir tempDewpointWater temp
2016-Aug-27 07:33N 38°43' W 009°07'0 0.0
2016-Aug-27 06:32N 38°43' W 009°07'17 8.7
2016-Aug-27 04:33N 38°37' W 009°27'1313.0
2016-Aug-27 03:33N 38°42' W 009°43'1515.3
2016-Aug-27 02:33N 38°57' W 009°44'1515.2
2016-Aug-27 01:33N 39°12' W 009°44'115 3.1
2016-Aug-25 12:33N 40°59' W 008°48'3414.3
2016-Aug-25 10:09N 40°25' W 008°59'914.6
2016-Aug-25 09:33N 40°17' W 009°02'1412.0
2016-Aug-25 08:22N 40°08' W 009°17'1314.4
2016-Aug-25 07:28N 40°06' W 009°33'1413.9
2016-Aug-25 06:30N 39°60' W 009°49'5614.1
2016-Aug-25 02:31N 39°15' W 010°33'1313.7
2016-Aug-25 01:33N 39°04' W 010°43'4213.8
2016-Aug-24 22:31N 38°31' W 011°15'2814.0
2016-Aug-24 20:33N 38°09' W 011°37'1514.4
2016-Aug-24 19:33N 37°57' W 011°48'2115.0
2016-Aug-24 18:08N 37°40' W 012°04'6814.9
2016-Aug-24 13:33N 36°45' W 012°55'1514.7
2016-Aug-24 12:30N 36°32' W 013°05'26314.7
2016-Aug-23 18:31N 33°01' W 016°16'2014.8
2016-Aug-23 17:11N 32°47' W 016°33'914.0
2016-Aug-23 16:33N 32°43' W 016°43'2 0.7
2016-Aug-23 14:06N 32°44' W 016°44'0 0.0
2016-Aug-23 13:33N 32°44' W 016°44'0 0.0
2016-Aug-23 12:31N 32°44' W 016°44'0 0.0
2016-Aug-23 11:28N 32°44' W 016°44'0 0.0
2016-Aug-23 10:33N 32°44' W 016°44'0 0.0
2016-Aug-23 09:32N 32°44' W 016°44'0 0.0
2016-Aug-23 08:33N 32°44' W 016°44'0 0.0
2016-Aug-23 07:31N 32°44' W 016°44'0 0.0
2016-Aug-23 06:33N 32°44' W 016°44'0 0.0
2016-Aug-23 02:27N 32°44' W 016°44'0 0.0
2016-Aug-22 22:10N 32°44' W 016°44'55 2.7
2016-Aug-22 01:31N 33°20' W 015°54'9716.0
2016-Aug-21 19:25N 34°29' W 014°31'1516.1
2016-Aug-21 18:29N 34°40' W 014°18'2115.6
2016-Aug-21 17:06N 34°55' W 013°59'1615.6
2016-Aug-21 16:06N 35°06' W 013°46'1515.6
2016-Aug-21 15:08N 35°17' W 013°33'3115.7
2016-Aug-21 13:12N 35°38' W 013°06'4515.8
2016-Aug-21 10:21N 36°10' W 012°27'10615.6
2016-Aug-21 03:31N 37°25' W 010°53'1615.9
2016-Aug-21 02:29N 37°37' W 010°39'6715.6
2016-Aug-20 22:13N 38°25' W 009°39'1015.8
2016-Aug-20 21:33N 38°32' W 009°30'1715.1
2016-Aug-20 20:26N 38°41' W 009°12'4 3.9
2016-Aug-20 19:19N 38°43' W 009°07'0 0.1
2016-Aug-20 18:18N 38°43' W 009°07'0 0.0
2016-Aug-20 17:33N 38°43' W 009°07'0 0.0
2016-Aug-20 16:26N 38°43' W 009°07'0 0.0
2016-Aug-20 15:23N 38°43' W 009°07'0 0.0
2016-Aug-20 14:32N 38°43' W 009°07'0 0.0
2016-Aug-20 13:31N 38°43' W 009°07'0 0.0
2016-Aug-20 12:19N 38°43' W 009°07'0 0.0
2016-Aug-20 07:16N 38°43' W 009°07'4 6.1
2016-Aug-20 06:32N 38°41' W 009°12'1111.2
2016-Aug-20 05:33N 38°37' W 009°25'1514.8
2016-Aug-20 04:33N 38°41' W 009°43'1616.2
2016-Aug-20 03:33N 38°57' W 009°45'1616.3
2016-Aug-20 02:33N 39°14' W 009°47'50 1.3
2016-Aug-18 13:18N 40°04' W 009°47'1216.5
2016-Aug-18 12:33N 39°54' W 009°56'3316.7
2016-Aug-18 10:33N 39°26' W 010°21'2116.7
2016-Aug-18 09:19N 39°10' W 010°37'1316.4
2016-Aug-18 08:33N 39°00' W 010°47'1716.3
2016-Aug-18 07:31N 38°47' W 011°00'2016.3
2016-Aug-18 06:19N 38°31' W 011°16'1316.0
2016-Aug-18 05:32N 38°21' W 011°25'2016.5
2016-Aug-18 04:20N 38°06' W 011°41'1716.4
2016-Aug-18 03:16N 37°52' W 011°54'1216.6
2016-Aug-18 02:32N 37°42' W 012°03'1616.2
2016-Aug-18 01:33N 37°28' W 012°14'1616.2
2016-Aug-18 00:33N 37°15' W 012°25'1916.1
2016-Aug-17 23:23N 36°59' W 012°38'1416.2
2016-Aug-17 22:31N 36°48' W 012°48'1616.3
2016-Aug-17 21:33N 36°34' W 012°59'  
Track history (hours):
 
Tides and Currents Weather Stations Pressure Air Temp Water Temp Dewpoint Dewpoint Depression Visibility Wind Speed Wind Dir Waves Ship Positions

Funchalense 5

Last reported at 2016-Aug-27 07:33 UTC. Time now 2016-Aug-27 08:12 UTC.
Position N 38°43' W 009°07'.

Length 127 m; draft 6.5 m.

Type: Ship. MMSI: 255804250.

Date/timePositionNaut miles runAvg speedWind from/ knotsBaromVisibWave heightAir tempDewpointWater temp
2016-Aug-27 07:33N 38°43' W 009°07'0 0.0
2016-Aug-27 06:32N 38°43' W 009°07'17 8.7
2016-Aug-27 04:33N 38°37' W 009°27'1313.0
2016-Aug-27 03:33N 38°42' W 009°43'1515.3
2016-Aug-27 02:33N 38°57' W 009°44'1515.2
2016-Aug-27 01:33N 39°12' W 009°44'115 3.1
2016-Aug-25 12:33N 40°59' W 008°48'3414.3
2016-Aug-25 10:09N 40°25' W 008°59'914.6
2016-Aug-25 09:33N 40°17' W 009°02'1412.0
2016-Aug-25 08:22N 40°08' W 009°17'1314.4
2016-Aug-25 07:28N 40°06' W 009°33'1413.9
2016-Aug-25 06:30N 39°60' W 009°49'5614.1
2016-Aug-25 02:31N 39°15' W 010°33'1313.7
2016-Aug-25 01:33N 39°04' W 010°43'4213.8
2016-Aug-24 22:31N 38°31' W 011°15'2814.0
2016-Aug-24 20:33N 38°09' W 011°37'1514.4
2016-Aug-24 19:33N 37°57' W 011°48'2115.0
2016-Aug-24 18:08N 37°40' W 012°04'6814.9
2016-Aug-24 13:33N 36°45' W 012°55'1514.7
2016-Aug-24 12:30N 36°32' W 013°05'26314.7
2016-Aug-23 18:31N 33°01' W 016°16'2014.8
2016-Aug-23 17:11N 32°47' W 016°33'914.0
2016-Aug-23 16:33N 32°43' W 016°43'2 0.7
2016-Aug-23 14:06N 32°44' W 016°44'0 0.0
2016-Aug-23 13:33N 32°44' W 016°44'0 0.0
2016-Aug-23 12:31N 32°44' W 016°44'0 0.0
2016-Aug-23 11:28N 32°44' W 016°44'0 0.0
2016-Aug-23 10:33N 32°44' W 016°44'0 0.0
2016-Aug-23 09:32N 32°44' W 016°44'0 0.0
2016-Aug-23 08:33N 32°44' W 016°44'0 0.0
2016-Aug-23 07:31N 32°44' W 016°44'0 0.0
2016-Aug-23 06:33N 32°44' W 016°44'0 0.0
2016-Aug-23 02:27N 32°44' W 016°44'0 0.0
2016-Aug-22 22:10N 32°44' W 016°44'55 2.7
2016-Aug-22 01:31N 33°20' W 015°54'9716.0
2016-Aug-21 19:25N 34°29' W 014°31'1516.1
2016-Aug-21 18:29N 34°40' W 014°18'2115.6
2016-Aug-21 17:06N 34°55' W 013°59'1615.6
2016-Aug-21 16:06N 35°06' W 013°46'1515.6
2016-Aug-21 15:08N 35°17' W 013°33'3115.7
2016-Aug-21 13:12N 35°38' W 013°06'4515.8
2016-Aug-21 10:21N 36°10' W 012°27'10615.6
2016-Aug-21 03:31N 37°25' W 010°53'1615.9
2016-Aug-21 02:29N 37°37' W 010°39'6715.6
2016-Aug-20 22:13N 38°25' W 009°39'1015.8
2016-Aug-20 21:33N 38°32' W 009°30'1715.1
2016-Aug-20 20:26N 38°41' W 009°12'4 3.9
2016-Aug-20 19:19N 38°43' W 009°07'0 0.1
2016-Aug-20 18:18N 38°43' W 009°07'0 0.0
2016-Aug-20 17:33N 38°43' W 009°07'0 0.0
2016-Aug-20 16:26N 38°43' W 009°07'0 0.0
2016-Aug-20 15:23N 38°43' W 009°07'0 0.0
2016-Aug-20 14:32N 38°43' W 009°07'0 0.0
2016-Aug-20 13:31N 38°43' W 009°07'0 0.0
2016-Aug-20 12:19N 38°43' W 009°07'0 0.0
2016-Aug-20 07:16N 38°43' W 009°07'4 6.1
2016-Aug-20 06:32N 38°41' W 009°12'1111.2
2016-Aug-20 05:33N 38°37' W 009°25'1514.8
2016-Aug-20 04:33N 38°41' W 009°43'1616.2
2016-Aug-20 03:33N 38°57' W 009°45'1616.3
2016-Aug-20 02:33N 39°14' W 009°47'50 1.3
2016-Aug-18 13:18N 40°04' W 009°47'1216.5
2016-Aug-18 12:33N 39°54' W 009°56'3316.7
2016-Aug-18 10:33N 39°26' W 010°21'2116.7
2016-Aug-18 09:19N 39°10' W 010°37'1316.4
2016-Aug-18 08:33N 39°00' W 010°47'1716.3
2016-Aug-18 07:31N 38°47' W 011°00'2016.3
2016-Aug-18 06:19N 38°31' W 011°16'1316.0
2016-Aug-18 05:32N 38°21' W 011°25'2016.5
2016-Aug-18 04:20N 38°06' W 011°41'1716.4
2016-Aug-18 03:16N 37°52' W 011°54'1216.6
2016-Aug-18 02:32N 37°42' W 012°03'1616.2
2016-Aug-18 01:33N 37°28' W 012°14'1616.2
2016-Aug-18 00:33N 37°15' W 012°25'1916.1
2016-Aug-17 23:23N 36°59' W 012°38'1416.2
2016-Aug-17 22:31N 36°48' W 012°48'1616.3
2016-Aug-17 21:33N 36°34' W 012°59'  

Dump ship's entire track history